Time;durP1;ratioP1;P1;durP2;ratioP2;P2;SDS_P1;SDS_P2;PMS_P1;PMS_P2;Temp;Humidity;BMP_temperature;BMP_pressure;BME280_temperature;BME280_humidity;BME280_pressure;Samples;Min_cycle;Max_cycle;Signal;HPM_P1;HPM_P2
2024/03/03 00:00:24;;;;;;;7.20;3.40;;;13.50;97.40;;;;;;4898777;29;20618;-76
2024/03/03 00:02:51;;;;;;;3.60;3.30;;;13.50;97.30;;;;;;4901928;29;20199;-77
2024/03/03 00:05:18;;;;;;;6.80;3.78;;;13.50;97.40;;;;;;4887018;29;20590;-77
2024/03/03 00:07:43;;;;;;;6.87;3.70;;;13.50;97.50;;;;;;4901476;29;20195;-77
2024/03/03 00:10:09;;;;;;;7.60;4.97;;;13.50;97.70;;;;;;4902189;29;20621;-78
2024/03/03 00:12:35;;;;;;;4.90;3.43;;;13.50;97.80;;;;;;4917361;29;20221;-78
2024/03/03 00:15:01;;;;;;;5.60;3.37;;;13.40;97.70;;;;;;4901883;29;20609;-76
2024/03/03 00:17:27;;;;;;;4.10;3.50;;;13.40;97.70;;;;;;4905265;29;20187;-77
2024/03/03 00:19:52;;;;;;;7.70;4.33;;;13.40;98.00;;;;;;4905072;29;20185;-77
2024/03/03 00:22:18;;;;;;;5.30;4.23;;;13.40;98.30;;;;;;4901035;29;20850;-77
2024/03/03 00:24:44;;;;;;;5.00;4.50;;;13.40;98.60;;;;;;4902902;29;20211;-77
2024/03/03 00:27:09;;;;;;;4.03;3.43;;;13.40;98.40;;;;;;4899920;29;20280;-77
2024/03/03 00:29:35;;;;;;;7.07;3.80;;;13.40;98.40;;;;;;4902656;29;20609;-78
2024/03/03 00:32:01;;;;;;;4.83;3.30;;;13.40;98.40;;;;;;4902461;29;20219;-77
2024/03/03 00:34:26;;;;;;;4.83;3.70;;;13.40;98.70;;;;;;4885682;29;20548;-77
2024/03/03 00:36:52;;;;;;;5.70;4.33;;;13.40;98.60;;;;;;4907977;29;20293;-76
2024/03/03 00:39:18;;;;;;;4.60;4.10;;;13.30;99.20;;;;;;4888465;29;20182;-78
2024/03/03 00:41:44;;;;;;;5.77;4.30;;;13.40;99.00;;;;;;4904672;29;20627;-77
2024/03/03 00:44:09;;;;;;;5.00;3.97;;;13.40;99.00;;;;;;4905630;29;20179;-77
2024/03/03 00:46:35;;;;;;;5.03;4.10;;;13.40;99.10;;;;;;4908644;29;20202;-77
2024/03/03 00:49:01;;;;;;;5.50;4.30;;;13.40;99.50;;;;;;4919269;29;20185;-77
2024/03/03 00:51:27;;;;;;;6.70;3.70;;;13.40;99.40;;;;;;4933928;29;20275;-77
2024/03/03 00:53:52;;;;;;;6.57;4.57;;;13.50;99.50;;;;;;4926184;29;20185;-78
2024/03/03 00:56:18;;;;;;;5.13;3.83;;;13.40;99.70;;;;;;4907456;29;20202;-76
2024/03/03 00:58:44;;;;;;;5.23;3.80;;;13.50;99.80;;;;;;4939157;29;20205;-77
2024/03/03 01:01:12;;;;;;;6.03;4.87;;;13.50;99.70;;;;;;4912837;29;20191;-78
2024/03/03 01:03:38;;;;;;;4.90;3.93;;;13.50;99.70;;;;;;4904660;29;20286;-78
2024/03/03 01:06:04;;;;;;;6.38;4.40;;;13.50;99.90;;;;;;4904259;29;20587;-78
2024/03/03 01:08:30;;;;;;;6.87;4.13;;;13.50;99.90;;;;;;4884713;29;20186;-78
2024/03/03 01:10:56;;;;;;;6.27;4.40;;;13.50;99.90;;;;;;4899897;29;20607;-77
2024/03/03 01:13:24;;;;;;;5.65;4.05;;;13.50;99.90;;;;;;4899479;29;20235;-77
2024/03/03 01:15:50;;;;;;;7.90;4.83;;;13.50;99.90;;;;;;4896432;29;20237;-77
2024/03/03 01:18:16;;;;;;;6.97;4.50;;;13.60;99.90;;;;;;4898233;29;20207;-78
2024/03/03 01:20:42;;;;;;;4.70;4.13;;;13.50;99.90;;;;;;4894505;29;20189;-77
2024/03/03 01:23:08;;;;;;;8.40;3.67;;;13.50;99.90;;;;;;4912266;29;20210;-77
2024/03/03 01:25:34;;;;;;;5.10;4.40;;;13.50;99.90;;;;;;4912742;29;20250;-77
2024/03/03 01:27:59;;;;;;;6.93;5.13;;;13.50;99.90;;;;;;4907922;29;20635;-78
2024/03/03 01:30:25;;;;;;;11.50;4.50;;;13.50;99.90;;;;;;4913048;29;20211;-77
2024/03/03 01:32:51;;;;;;;5.10;3.73;;;13.50;99.90;;;;;;4905374;29;20218;-77
2024/03/03 01:35:17;;;;;;;7.30;5.40;;;13.40;99.90;;;;;;4912828;29;20213;-78
2024/03/03 01:37:43;;;;;;;6.73;4.20;;;13.40;99.90;;;;;;4907808;29;20182;-77
2024/03/03 01:40:10;;;;;;;5.55;4.32;;;13.40;99.90;;;;;;4910327;29;20209;-77
2024/03/03 01:42:36;;;;;;;5.00;4.33;;;13.40;99.90;;;;;;4926174;29;20210;-78
2024/03/03 01:45:02;;;;;;;6.07;4.10;;;13.30;99.90;;;;;;4911319;29;20583;-77
2024/03/03 01:47:27;;;;;;;5.70;4.20;;;13.30;99.90;;;;;;4925084;29;20210;-77
2024/03/03 01:49:54;;;;;;;4.67;3.87;;;13.30;99.90;;;;;;4906079;29;20687;-77
2024/03/03 01:52:21;;;;;;;4.82;4.10;;;13.30;99.90;;;;;;4921111;29;20198;-77
2024/03/03 01:54:47;;;;;;;4.75;3.60;;;13.30;99.90;;;;;;4904696;29;20646;-77
2024/03/03 01:57:16;;;;;;;6.07;4.67;;;13.30;99.90;;;;;;4905789;29;20240;-75
2024/03/03 01:59:42;;;;;;;5.27;4.33;;;13.30;99.90;;;;;;4895333;29;20590;-78
2024/03/03 02:02:09;;;;;;;7.20;4.20;;;13.20;99.90;;;;;;4914970;29;20615;-77
2024/03/03 02:04:35;;;;;;;5.45;3.70;;;13.30;99.90;;;;;;4907835;29;20606;-78
2024/03/03 02:07:01;;;;;;;5.95;4.20;;;13.20;99.90;;;;;;4908520;29;20657;-78
2024/03/03 02:09:27;;;;;;;5.23;4.00;;;13.20;99.90;;;;;;4903178;29;20233;-78
2024/03/03 02:11:53;;;;;;;7.87;4.70;;;13.30;99.90;;;;;;4918332;29;20626;-77
2024/03/03 02:14:19;;;;;;;6.33;3.87;;;13.20;99.90;;;;;;4909188;29;20594;-76
2024/03/03 02:16:45;;;;;;;5.53;3.70;;;13.20;99.90;;;;;;4885416;29;20642;-77
2024/03/03 02:19:11;;;;;;;4.90;3.77;;;13.20;99.90;;;;;;4923267;29;21109;-77
2024/03/03 02:21:37;;;;;;;6.03;3.83;;;13.10;99.90;;;;;;4908288;29;20614;-76
2024/03/03 02:24:03;;;;;;;4.60;3.37;;;13.10;99.90;;;;;;4911785;29;20266;-77
2024/03/03 02:26:29;;;;;;;5.32;4.45;;;13.00;99.90;;;;;;4911249;29;20186;-77
2024/03/03 02:28:55;;;;;;;5.95;3.60;;;12.90;99.90;;;;;;4911131;29;20182;-77
2024/03/03 02:31:22;;;;;;;4.85;3.42;;;12.90;99.90;;;;;;4911569;29;20266;-77
2024/03/03 02:33:47;;;;;;;5.00;3.58;;;12.90;99.90;;;;;;4911232;29;20190;-77
2024/03/03 02:36:14;;;;;;;6.00;3.93;;;12.80;99.90;;;;;;4939288;23;20227;-73
2024/03/03 02:38:46;;;;;;;5.13;3.22;;;12.80;99.90;;;;;;4933695;29;20581;-73
2024/03/03 02:41:11;;;;;;;6.18;3.10;;;12.70;99.90;;;;;;4919304;29;20170;-73
2024/03/03 02:43:37;;;;;;;3.97;3.00;;;12.70;99.90;;;;;;4929134;29;20546;-73
2024/03/03 02:46:03;;;;;;;6.83;4.33;;;12.70;99.90;;;;;;4913228;29;20201;-73
2024/03/03 02:48:29;;;;;;;6.37;3.90;;;12.70;99.90;;;;;;4929260;29;20178;-73
2024/03/03 02:50:54;;;;;;;5.10;4.00;;;12.60;99.90;;;;;;4913225;29;20629;-73
2024/03/03 02:53:20;;;;;;;4.90;3.63;;;12.60;99.90;;;;;;4913278;29;20182;-73
2024/03/03 02:55:46;;;;;;;4.70;3.60;;;12.60;99.90;;;;;;4916050;29;20217;-72
2024/03/03 02:58:11;;;;;;;3.60;3.17;;;12.60;99.90;;;;;;4928397;29;20170;-73
2024/03/03 03:00:37;;;;;;;8.23;4.73;;;12.60;99.90;;;;;;4897499;29;20177;-73
2024/03/03 03:03:03;;;;;;;3.90;3.13;;;12.60;99.90;;;;;;4914463;29;20692;-73
2024/03/03 03:05:28;;;;;;;6.30;3.70;;;12.60;99.90;;;;;;4914449;29;20205;-73
2024/03/03 03:07:54;;;;;;;5.07;3.20;;;12.60;99.90;;;;;;4897183;29;20217;-73
2024/03/03 03:10:21;;;;;;;5.57;3.40;;;12.60;99.90;;;;;;4928856;29;20540;-73
2024/03/03 03:12:47;;;;;;;5.47;4.30;;;12.60;99.90;;;;;;4913138;29;20611;-74
2024/03/03 03:15:13;;;;;;;4.43;3.60;;;12.60;99.90;;;;;;4900933;29;20292;-74
2024/03/03 03:17:39;;;;;;;5.43;4.33;;;12.60;99.90;;;;;;4917698;29;20594;-74
2024/03/03 03:20:05;;;;;;;6.87;4.70;;;12.50;99.90;;;;;;4932355;29;20170;-74
2024/03/03 03:22:32;;;;;;;6.50;4.70;;;12.40;99.90;;;;;;4932069;29;20216;-73
2024/03/03 03:24:57;;;;;;;7.15;4.43;;;12.40;99.90;;;;;;4917487;29;20268;-73
2024/03/03 03:27:24;;;;;;;7.97;4.47;;;12.30;99.90;;;;;;4917606;29;20178;-73
2024/03/03 03:29:50;;;;;;;7.57;5.05;;;12.30;99.90;;;;;;4932307;29;20177;-73
2024/03/03 03:32:15;;;;;;;7.63;3.70;;;12.20;99.90;;;;;;4917718;29;20526;-73
2024/03/03 03:34:45;;;;;;;5.30;4.20;;;12.20;99.90;;;;;;4917390;29;20637;-73
2024/03/03 03:37:15;;;;;;;8.80;4.82;;;12.20;99.90;;;;;;4947937;29;20212;-73
2024/03/03 03:39:42;;;;;;;7.95;4.78;;;12.10;99.90;;;;;;4917608;29;20182;-73
2024/03/03 03:42:07;;;;;;;6.70;4.72;;;12.10;99.90;;;;;;4917531;29;20170;-73
2024/03/03 03:44:33;;;;;;;6.00;4.63;;;12.10;99.90;;;;;;4917336;29;20561;-73
2024/03/03 03:47:00;;;;;;;6.67;4.77;;;12.00;99.90;;;;;;4917367;29;20188;-73
2024/03/03 03:49:26;;;;;;;6.28;4.60;;;12.00;99.90;;;;;;4917138;29;20185;-73
2024/03/03 03:51:51;;;;;;;8.18;5.25;;;12.00;99.90;;;;;;4917049;29;20260;-73
2024/03/03 03:54:17;;;;;;;7.87;5.50;;;12.00;99.90;;;;;;4916080;29;20280;-73
2024/03/03 03:56:43;;;;;;;7.30;5.80;;;11.90;99.90;;;;;;4916931;29;20201;-73
2024/03/03 03:59:09;;;;;;;8.60;6.15;;;11.90;99.90;;;;;;4917082;29;20659;-73
2024/03/03 04:01:35;;;;;;;6.40;5.13;;;11.90;99.90;;;;;;4917085;29;20166;-73
2024/03/03 04:04:00;;;;;;;9.30;6.70;;;11.90;99.90;;;;;;4923379;29;20177;-73
2024/03/03 04:06:27;;;;;;;8.03;5.60;;;11.90;99.90;;;;;;4917089;29;20252;-72
2024/03/03 04:08:54;;;;;;;8.07;6.03;;;11.90;99.90;;;;;;4916920;29;20186;-73
2024/03/03 04:11:20;;;;;;;9.05;6.20;;;11.90;99.90;;;;;;4916915;29;20360;-72
2024/03/03 04:13:50;;;;;;;7.95;5.05;;;11.90;99.90;;;;;;4931339;29;20593;-73
2024/03/03 04:16:16;;;;;;;8.20;6.72;;;11.90;99.90;;;;;;4916656;29;20241;-72
2024/03/03 04:18:42;;;;;;;6.97;5.50;;;11.90;99.90;;;;;;4899838;29;20282;-73
2024/03/03 04:21:08;;;;;;;6.53;4.73;;;11.90;99.90;;;;;;4916843;29;20556;-72
2024/03/03 04:23:33;;;;;;;7.43;5.60;;;11.90;99.90;;;;;;4916724;29;20166;-73
2024/03/03 04:26:04;;;;;;;6.60;5.13;;;11.80;99.90;;;;;;4930613;29;20190;-72
2024/03/03 04:28:29;;;;;;;8.63;6.22;;;11.90;99.90;;;;;;4916745;29;20200;-73
2024/03/03 04:30:55;;;;;;;11.73;6.90;;;11.90;99.90;;;;;;4916585;29;20185;-73
2024/03/03 04:33:21;;;;;;;7.60;5.37;;;11.90;99.90;;;;;;4920826;29;20188;-73
2024/03/03 04:35:46;;;;;;;7.97;6.07;;;11.90;99.90;;;;;;4931002;29;20224;-73
2024/03/03 04:38:12;;;;;;;7.37;5.50;;;11.90;99.90;;;;;;4916576;29;20269;-73
2024/03/03 04:40:38;;;;;;;8.00;6.17;;;11.90;99.90;;;;;;4916367;29;20241;-74
2024/03/03 04:43:04;;;;;;;8.00;6.13;;;11.90;99.90;;;;;;4916546;29;20253;-73
2024/03/03 04:45:29;;;;;;;9.50;6.33;;;11.90;99.90;;;;;;4915134;29;20201;-73
2024/03/03 04:47:55;;;;;;;8.40;6.67;;;11.90;99.90;;;;;;4916317;29;20740;-73
2024/03/03 04:50:21;;;;;;;7.97;5.50;;;11.90;99.90;;;;;;4914955;29;20597;-73
2024/03/03 04:52:47;;;;;;;6.87;5.13;;;11.90;99.90;;;;;;4916396;29;20214;-73
2024/03/03 04:55:13;;;;;;;8.50;5.65;;;11.90;99.90;;;;;;4916178;29;20705;-73
2024/03/03 04:57:39;;;;;;;8.73;6.67;;;11.90;99.90;;;;;;4946539;29;20624;-73
2024/03/03 05:00:08;;;;;;;9.10;7.03;;;11.90;99.90;;;;;;4949886;29;20180;-73
2024/03/03 05:02:35;;;;;;;7.65;6.72;;;11.90;99.90;;;;;;4927821;29;20192;-73
2024/03/03 05:05:00;;;;;;;9.23;6.80;;;12.00;99.90;;;;;;4915229;29;20618;-75
2024/03/03 05:07:50;;;;;;;8.40;6.23;;;11.90;99.90;;;;;;4915132;29;20268;-75
2024/03/03 05:10:16;;;;;;;13.15;5.97;;;11.90;99.90;;;;;;4908158;29;20249;-75
2024/03/03 05:12:41;;;;;;;6.30;5.57;;;11.90;99.90;;;;;;4913821;29;20206;-75
2024/03/03 05:15:07;;;;;;;9.33;7.00;;;11.90;99.90;;;;;;4913856;29;20557;-75
2024/03/03 05:17:33;;;;;;;8.30;6.28;;;11.90;99.90;;;;;;4914421;29;20182;-75
2024/03/03 05:19:59;;;;;;;7.73;5.40;;;11.90;99.90;;;;;;4913509;29;20658;-75
2024/03/03 05:22:24;;;;;;;7.67;6.47;;;11.90;99.90;;;;;;4913680;29;20249;-75
2024/03/03 05:24:50;;;;;;;7.47;5.93;;;11.90;99.90;;;;;;4914908;29;20202;-75
2024/03/03 05:27:16;;;;;;;9.53;6.30;;;11.90;99.90;;;;;;4914411;29;20189;-75
2024/03/03 05:29:42;;;;;;;11.40;6.73;;;11.90;99.90;;;;;;4914694;29;20197;-75
2024/03/03 05:32:07;;;;;;;9.70;7.03;;;11.90;99.90;;;;;;4913282;29;20758;-75
2024/03/03 05:34:33;;;;;;;8.83;7.57;;;11.90;99.90;;;;;;4914606;29;20205;-76
2024/03/03 05:36:59;;;;;;;8.63;6.40;;;11.90;99.90;;;;;;4912656;29;20220;-76
2024/03/03 05:39:26;;;;;;;11.00;7.73;;;11.80;99.90;;;;;;4913588;29;20704;-75
2024/03/03 05:41:51;;;;;;;7.75;6.25;;;11.80;99.90;;;;;;4914375;29;20181;-75
2024/03/03 05:44:17;;;;;;;8.67;5.63;;;11.80;99.90;;;;;;4914725;29;20192;-75
2024/03/03 05:46:43;;;;;;;7.63;5.93;;;11.80;99.90;;;;;;4914269;29;20192;-76
2024/03/03 05:49:08;;;;;;;8.90;6.40;;;11.80;99.90;;;;;;4915449;29;20185;-76
2024/03/03 05:51:34;;;;;;;7.80;6.77;;;11.80;99.90;;;;;;4924083;29;20244;-76
2024/03/03 05:54:01;;;;;;;9.33;5.87;;;11.70;99.90;;;;;;4918367;29;20656;-75
2024/03/03 05:56:27;;;;;;;9.55;7.00;;;11.70;99.90;;;;;;4920559;29;20202;-76
2024/03/03 05:58:53;;;;;;;10.60;6.80;;;11.70;99.90;;;;;;4915006;29;20178;-75
2024/03/03 06:01:18;;;;;;;14.20;7.07;;;11.70;99.90;;;;;;4919576;29;20259;-76
2024/03/03 06:03:44;;;;;;;8.10;5.67;;;11.60;99.90;;;;;;4928002;29;20620;-77
2024/03/03 06:06:10;;;;;;;7.50;5.27;;;11.60;99.90;;;;;;4925945;29;20236;-78
2024/03/03 06:08:41;;;;;;;8.27;6.10;;;11.60;99.90;;;;;;4926716;29;20188;-77
2024/03/03 06:11:07;;;;;;;9.32;6.47;;;11.70;99.90;;;;;;4923695;29;20201;-77
2024/03/03 06:13:34;;;;;;;6.57;5.83;;;11.70;99.90;;;;;;4918829;29;20280;-75
2024/03/03 06:16:00;;;;;;;9.45;6.15;;;11.70;99.90;;;;;;4900901;29;20307;-75
2024/03/03 06:18:27;;;;;;;9.82;6.78;;;11.70;99.90;;;;;;4915821;29;20178;-74
2024/03/03 06:20:53;;;;;;;9.48;6.75;;;11.70;99.90;;;;;;4912929;29;20177;-75
2024/03/03 06:23:19;;;;;;;10.50;7.30;;;11.70;99.90;;;;;;4913436;29;20701;-75
2024/03/03 06:25:45;;;;;;;9.97;6.57;;;11.70;99.90;;;;;;4913246;29;20205;-75
2024/03/03 06:28:11;;;;;;;10.87;6.73;;;11.70;99.90;;;;;;4914183;29;20211;-74
2024/03/03 06:30:36;;;;;;;9.87;7.47;;;11.70;99.90;;;;;;4914377;29;20671;-75
2024/03/03 06:33:02;;;;;;;9.60;6.50;;;11.80;99.90;;;;;;4913336;29;20189;-74
2024/03/03 06:35:28;;;;;;;9.10;6.60;;;11.80;99.90;;;;;;4914392;29;20217;-77
2024/03/03 06:37:54;;;;;;;9.20;7.00;;;11.80;99.90;;;;;;4914147;29;20729;-76
2024/03/03 06:40:19;;;;;;;8.00;6.50;;;11.80;99.90;;;;;;4943201;29;20583;-77
2024/03/03 06:42:45;;;;;;;9.57;7.90;;;11.80;99.90;;;;;;4912894;29;20661;-77
2024/03/03 06:45:11;;;;;;;9.53;6.90;;;11.80;99.90;;;;;;4914177;29;20625;-77
2024/03/03 06:47:37;;;;;;;8.88;6.07;;;11.80;99.90;;;;;;4897130;29;20189;-77
2024/03/03 06:50:04;;;;;;;9.75;6.88;;;11.90;99.90;;;;;;4925104;29;20233;-77
2024/03/03 06:52:30;;;;;;;7.53;5.55;;;11.90;99.90;;;;;;4924547;29;20178;-76
2024/03/03 06:54:57;;;;;;;7.10;5.50;;;11.90;99.90;;;;;;4916012;29;20568;-76
2024/03/03 06:57:23;;;;;;;9.38;6.85;;;12.00;99.90;;;;;;4931225;29;20669;-76
2024/03/03 06:59:49;;;;;;;7.93;6.83;;;12.00;99.90;;;;;;4916405;29;20182;-77
2024/03/03 07:02:15;;;;;;;8.98;6.57;;;12.00;99.90;;;;;;4899491;29;20614;-77
2024/03/03 07:04:41;;;;;;;9.27;7.05;;;12.00;99.90;;;;;;4899356;29;20190;-77
2024/03/03 07:07:08;;;;;;;7.30;5.87;;;12.00;99.90;;;;;;4899503;29;20174;-77
2024/03/03 07:09:35;;;;;;;7.97;6.18;;;12.10;99.90;;;;;;4898180;29;20246;-77
2024/03/03 07:12:01;;;;;;;7.95;6.20;;;12.10;99.90;;;;;;4898106;29;20178;-77
2024/03/03 07:14:27;;;;;;;12.18;7.95;;;12.20;99.90;;;;;;4899164;29;20234;-76
2024/03/03 07:16:53;;;;;;;9.37;6.60;;;12.20;99.90;;;;;;4913596;29;20792;-77
2024/03/03 07:19:19;;;;;;;8.68;6.85;;;12.20;99.90;;;;;;4898269;29;20542;-77
2024/03/03 07:21:45;;;;;;;10.10;7.33;;;12.20;99.90;;;;;;4899412;29;20179;-77
2024/03/03 07:24:11;;;;;;;9.40;8.20;;;12.20;99.90;;;;;;4899269;29;20575;-77
2024/03/03 07:26:37;;;;;;;7.73;5.17;;;12.30;99.90;;;;;;4910834;29;20680;-77
2024/03/03 07:29:03;;;;;;;8.15;5.93;;;12.30;99.90;;;;;;4918963;29;20681;-77
2024/03/03 07:31:29;;;;;;;7.60;6.17;;;12.40;99.90;;;;;;4917617;29;20603;-77
2024/03/03 07:33:55;;;;;;;9.43;5.93;;;12.40;99.90;;;;;;4916492;29;20589;-77
2024/03/03 07:36:21;;;;;;;6.90;5.93;;;12.60;99.90;;;;;;4900597;29;20221;-77
2024/03/03 07:38:47;;;;;;;10.60;7.33;;;12.70;99.90;;;;;;4917997;29;20574;-77
2024/03/03 07:41:12;;;;;;;10.43;6.40;;;12.70;99.90;;;;;;4918213;29;20608;-78
2024/03/03 07:43:39;;;;;;;6.90;5.40;;;12.80;99.90;;;;;;4901606;29;20633;-78
2024/03/03 07:46:05;;;;;;;7.10;5.75;;;12.90;99.90;;;;;;4918493;29;20198;-77
2024/03/03 07:48:31;;;;;;;9.27;6.70;;;12.90;99.90;;;;;;4917404;29;20594;-77
2024/03/03 07:50:57;;;;;;;8.80;6.50;;;12.90;99.90;;;;;;4916673;29;20283;-78
2024/03/03 07:53:23;;;;;;;12.03;6.67;;;12.90;99.90;;;;;;4915447;29;20213;-78
2024/03/03 07:55:49;;;;;;;9.43;6.80;;;12.90;99.90;;;;;;4930900;29;20649;-79
2024/03/03 07:58:16;;;;;;;8.98;6.68;;;13.00;99.90;;;;;;4883472;29;20174;-80
2024/03/03 08:00:43;;;;;;;9.80;7.57;;;13.00;99.90;;;;;;4913847;29;20536;-80
2024/03/03 08:03:08;;;;;;;14.07;7.40;;;13.00;99.90;;;;;;4893784;29;20613;-79
2024/03/03 08:05:34;;;;;;;8.00;6.37;;;13.00;99.90;;;;;;4916169;29;20618;-80
2024/03/03 08:08:08;;;;;;;10.43;7.40;;;13.00;99.90;;;;;;4902417;29;20613;-79
2024/03/03 08:10:34;;;;;;;9.85;7.50;;;13.00;99.90;;;;;;4914956;29;20182;-79
2024/03/03 08:13:00;;;;;;;9.37;7.10;;;13.10;99.90;;;;;;4914705;29;20182;-79
2024/03/03 08:15:26;;;;;;;8.23;6.68;;;13.10;99.90;;;;;;4914889;29;20617;-79
2024/03/03 08:17:52;;;;;;;11.13;5.83;;;13.10;99.90;;;;;;4915782;29;20184;-79
2024/03/03 08:20:19;;;;;;;9.50;7.50;;;13.20;99.90;;;;;;4914489;29;20281;-80
2024/03/03 08:22:45;;;;;;;11.83;8.03;;;13.30;99.90;;;;;;4898904;29;20628;-80
2024/03/03 08:25:19;;;;;;;9.17;7.20;;;13.40;99.90;;;;;;4916114;29;20645;-77
2024/03/03 08:27:45;;;;;;;9.03;6.20;;;13.50;99.90;;;;;;4915481;29;20240;-76
2024/03/03 08:30:14;;;;;;;8.90;6.73;;;13.60;99.90;;;;;;4919726;29;21163;-76
2024/03/03 08:32:43;;;;;;;8.53;5.60;;;13.80;99.90;;;;;;4916172;29;20668;-77
2024/03/03 08:35:09;;;;;;;9.17;7.13;;;13.90;99.90;;;;;;4914364;29;20653;-77
2024/03/03 08:37:35;;;;;;;11.33;7.53;;;14.00;99.90;;;;;;4925168;29;20688;-78
2024/03/03 08:40:04;;;;;;;8.97;8.03;;;14.10;99.90;;;;;;4925768;29;20190;-77
2024/03/03 08:42:30;;;;;;;10.23;7.70;;;14.00;99.90;;;;;;4914549;29;20594;-77
2024/03/03 08:44:56;;;;;;;10.97;9.60;;;14.10;99.90;;;;;;4898829;29;20643;-76
2024/03/03 08:47:21;;;;;;;10.70;7.77;;;14.10;99.90;;;;;;4898563;29;20613;-76
2024/03/03 08:49:47;;;;;;;9.83;7.20;;;14.10;99.90;;;;;;4930529;29;20186;-77
2024/03/03 08:52:13;;;;;;;10.50;8.20;;;14.20;99.90;;;;;;4915194;29;20545;-77
2024/03/03 08:54:38;;;;;;;9.50;8.27;;;14.30;99.90;;;;;;4915678;29;20700;-78
2024/03/03 08:57:04;;;;;;;9.63;7.30;;;14.30;99.90;;;;;;4916740;29;20702;-77
2024/03/03 08:59:30;;;;;;;9.80;7.00;;;14.30;99.90;;;;;;4916137;29;20182;-77
2024/03/03 09:01:55;;;;;;;9.33;7.80;;;14.40;99.90;;;;;;4915493;29;20205;-77
2024/03/03 09:04:21;;;;;;;12.03;8.83;;;14.30;99.90;;;;;;4916123;29;20189;-77
2024/03/03 09:06:47;;;;;;;10.13;8.10;;;14.30;99.90;;;;;;4938717;29;20723;-77
2024/03/03 09:09:16;;;;;;;9.17;7.27;;;14.40;99.90;;;;;;4899397;29;20687;-78
2024/03/03 09:11:44;;;;;;;11.73;7.80;;;14.50;99.90;;;;;;4923074;29;20184;-78
2024/03/03 09:14:10;;;;;;;10.07;7.77;;;14.60;99.90;;;;;;4914228;29;20605;-78
2024/03/03 09:16:36;;;;;;;10.57;7.77;;;14.80;99.90;;;;;;4915523;29;20732;-78
2024/03/03 09:19:01;;;;;;;8.53;7.63;;;15.20;99.90;;;;;;4915697;29;20623;-78
2024/03/03 09:21:27;;;;;;;8.97;6.93;;;15.50;99.90;;;;;;4903314;29;20181;-78
2024/03/03 09:23:56;;;;;;;9.13;7.00;;;15.90;99.90;;;;;;4919041;29;20202;-77
2024/03/03 09:26:22;;;;;;;8.70;6.67;;;16.30;99.90;;;;;;4914145;29;20213;-75
2024/03/03 09:28:47;;;;;;;8.70;6.90;;;16.70;99.90;;;;;;4914898;29;21167;-76
2024/03/03 09:31:15;;;;;;;8.17;7.30;;;17.00;99.90;;;;;;4897822;29;20625;-76
2024/03/03 09:33:44;;;;;;;8.37;6.30;;;17.30;99.90;;;;;;4914918;29;20178;-76
2024/03/03 09:36:10;;;;;;;8.93;6.10;;;17.60;99.90;;;;;;4880953;29;20701;-76
2024/03/03 09:38:36;;;;;;;9.03;6.93;;;17.80;99.90;;;;;;4921101;29;20606;-76
2024/03/03 09:41:02;;;;;;;7.70;6.87;;;18.10;99.90;;;;;;4913500;29;20601;-75
2024/03/03 09:43:32;;;;;;;8.67;6.43;;;18.10;99.90;;;;;;4914741;29;20620;-76
2024/03/03 09:45:58;;;;;;;7.63;6.70;;;18.10;99.90;;;;;;4915101;29;20677;-75
2024/03/03 09:48:25;;;;;;;8.50;7.03;;;18.10;99.90;;;;;;4914516;29;20586;-76
2024/03/03 09:50:52;;;;;;;9.13;6.57;;;18.30;99.90;;;;;;4897556;29;20581;-75
2024/03/03 09:53:19;;;;;;;7.50;6.00;;;18.30;99.90;;;;;;4913413;29;20603;-74
2024/03/03 09:55:45;;;;;;;7.87;6.63;;;18.40;99.90;;;;;;4897607;29;20658;-74
2024/03/03 09:58:12;;;;;;;7.87;6.63;;;18.40;99.90;;;;;;4914298;29;20649;-74
2024/03/03 10:00:38;;;;;;;7.40;6.20;;;18.50;99.90;;;;;;4913449;29;20602;-73
2024/03/03 10:03:07;;;;;;;6.07;5.47;;;18.60;99.90;;;;;;4914818;29;20590;-76
2024/03/03 10:05:36;;;;;;;10.03;7.63;;;18.60;99.90;;;;;;4913423;29;20637;-75
2024/03/03 10:08:02;;;;;;;10.27;7.20;;;18.80;99.90;;;;;;4896932;29;20692;-75
2024/03/03 10:10:35;;;;;;;8.87;7.00;;;19.10;99.90;;;;;;4913040;29;21430;-75
2024/03/03 10:13:03;;;;;;;7.37;5.90;;;19.40;99.90;;;;;;4911585;29;20598;-75
2024/03/03 10:15:33;;;;;;;7.20;5.67;;;19.70;99.90;;;;;;4913318;29;20940;-75
2024/03/03 10:18:01;;;;;;;7.43;6.30;;;20.10;99.90;;;;;;4912893;29;20618;-76
2024/03/03 10:20:29;;;;;;;6.57;5.20;;;20.40;99.90;;;;;;4914736;29;21157;-76
2024/03/03 10:22:55;;;;;;;5.63;5.03;;;20.80;99.90;;;;;;4914078;29;20593;-76
2024/03/03 10:25:22;;;;;;;7.73;6.03;;;21.20;99.90;;;;;;4907123;29;20646;-76
2024/03/03 10:27:49;;;;;;;8.77;6.40;;;21.60;99.90;;;;;;4913861;29;20593;-77
2024/03/03 10:30:17;;;;;;;7.00;5.40;;;22.00;99.90;;;;;;4912869;29;20593;-76
2024/03/03 10:32:45;;;;;;;11.83;6.53;;;22.30;99.90;;;;;;4914694;29;20929;-76
2024/03/03 10:35:12;;;;;;;7.63;5.17;;;22.40;99.90;;;;;;4913895;29;21082;-76
2024/03/03 10:37:53;;;;;;;7.40;5.60;;;22.30;99.90;;;;;;4928171;29;20664;-76
2024/03/03 10:40:21;;;;;;;7.20;6.10;;;22.30;97.80;;;;;;4913733;29;20585;-74
2024/03/03 10:42:47;;;;;;;7.27;5.80;;;22.20;99.50;;;;;;4913845;29;20664;-73
2024/03/03 10:45:13;;;;;;;6.83;5.80;;;22.20;99.20;;;;;;4913476;29;20819;-73
2024/03/03 10:47:38;;;;;;;7.47;6.77;;;22.10;98.80;;;;;;4915138;29;20316;-73
2024/03/03 10:50:13;;;;;;;7.30;5.80;;;22.00;97.30;;;;;;4915191;29;20170;-74
2024/03/03 10:52:39;;;;;;;7.00;6.30;;;21.90;98.20;;;;;;4913747;29;20177;-74
2024/03/03 10:55:08;;;;;;;7.43;6.53;;;22.20;99.60;;;;;;4913539;29;20617;-74
2024/03/03 10:57:35;;;;;;;6.97;5.80;;;22.60;99.90;;;;;;4897867;29;20689;-74
2024/03/03 11:00:06;;;;;;;7.93;5.93;;;23.10;99.90;;;;;;4929541;29;21005;-73
2024/03/03 11:02:34;;;;;;;6.20;4.80;;;23.60;99.70;;;;;;4914830;29;20573;-73
2024/03/03 11:05:04;;;;;;;5.60;5.00;;;23.90;98.90;;;;;;4913435;29;20628;-78
2024/03/03 11:07:31;;;;;;;6.40;5.20;;;24.10;97.30;;;;;;4913111;29;20605;-78
2024/03/03 11:09:57;;;;;;;8.30;6.80;;;24.20;95.90;;;;;;4912821;29;20597;-78
2024/03/03 11:12:27;;;;;;;8.60;7.77;;;24.00;92.10;;;;;;4897194;29;20602;-78
2024/03/03 11:14:56;;;;;;;6.97;5.90;;;23.80;91.70;;;;;;4913139;29;20622;-78
2024/03/03 11:17:31;;;;;;;8.73;5.90;;;23.60;90.90;;;;;;4912315;29;20676;-77
2024/03/03 11:20:02;;;;;;;7.23;6.07;;;23.50;88.20;;;;;;4914205;29;20577;-78
2024/03/03 11:22:35;;;;;;;7.57;6.83;;;23.40;88.70;;;;;;4890191;29;20632;-78
2024/03/03 11:25:08;;;;;;;7.73;6.70;;;23.40;90.20;;;;;;4920572;29;20614;-78
2024/03/03 11:27:37;;;;;;;6.40;5.63;;;23.30;86.60;;;;;;4928360;29;20600;-77
2024/03/03 11:30:05;;;;;;;8.00;6.00;;;23.10;88.30;;;;;;4913984;29;20632;-77
2024/03/03 11:32:33;;;;;;;8.53;5.33;;;22.90;87.50;;;;;;4881351;29;20597;-77
2024/03/03 11:35:01;;;;;;;7.10;5.90;;;22.60;87.00;;;;;;4929771;29;20637;-77
2024/03/03 11:37:28;;;;;;;6.80;5.53;;;22.40;87.20;;;;;;4916383;29;20645;-76
2024/03/03 11:39:55;;;;;;;6.90;5.80;;;22.20;87.40;;;;;;4916532;29;20590;-76
2024/03/03 11:42:26;;;;;;;8.77;6.20;;;21.90;86.70;;;;;;4915608;29;20600;-74
2024/03/03 11:44:52;;;;;;;6.53;5.57;;;21.60;86.20;;;;;;4932218;29;20630;-74
2024/03/03 11:47:22;;;;;;;7.70;6.63;;;21.30;86.10;;;;;;4919062;29;21158;-74
2024/03/03 11:49:48;;;;;;;8.07;6.00;;;21.10;86.90;;;;;;4917503;29;20609;-73
2024/03/03 11:52:42;;;;;;;8.23;6.83;;;20.70;86.50;;;;;;4917845;29;20580;-74
2024/03/03 11:55:09;;;;;;;7.40;6.00;;;20.60;87.70;;;;;;4918038;29;20206;-73
2024/03/03 11:57:38;;;;;;;7.00;6.20;;;20.60;89.20;;;;;;4916399;29;20641;-73
2024/03/03 12:00:13;;;;;;;8.03;6.30;;;20.60;89.90;;;;;;4918037;29;20937;-73
2024/03/03 12:02:41;;;;;;;8.40;6.90;;;20.70;90.40;;;;;;4917722;29;20588;-76
2024/03/03 12:05:12;;;;;;;6.37;5.40;;;20.80;90.90;;;;;;4916159;29;20628;-75
2024/03/03 12:07:42;;;;;;;7.40;5.63;;;21.00;91.10;;;;;;4914893;29;20989;-75
2024/03/03 12:10:20;;;;;;;7.33;5.67;;;21.20;91.50;;;;;;4914869;29;20601;-75
2024/03/03 12:12:50;;;;;;;8.07;5.57;;;21.40;91.50;;;;;;4915241;29;20634;-75
2024/03/03 12:15:18;;;;;;;7.27;6.17;;;21.70;92.10;;;;;;4915704;29;20630;-75
2024/03/03 12:17:47;;;;;;;6.33;5.37;;;22.10;92.40;;;;;;4914719;29;21129;-76
2024/03/03 12:20:15;;;;;;;7.57;5.50;;;22.50;92.30;;;;;;4916265;29;20594;-76
2024/03/03 12:22:42;;;;;;;5.20;4.70;;;22.90;92.00;;;;;;4946859;29;20649;-77
2024/03/03 12:25:08;;;;;;;6.80;4.73;;;23.20;92.10;;;;;;4916253;29;20717;-76
2024/03/03 12:27:33;;;;;;;5.10;4.53;;;23.50;92.10;;;;;;4915907;29;20688;-77
2024/03/03 12:30:00;;;;;;;6.40;4.73;;;23.80;92.10;;;;;;4914544;29;20593;-76
2024/03/03 12:32:27;;;;;;;7.40;5.37;;;24.20;91.60;;;;;;4914822;29;20185;-76
2024/03/03 12:34:56;;;;;;;6.67;5.03;;;24.40;91.30;;;;;;4915996;29;20638;-76
2024/03/03 12:37:22;;;;;;;5.57;4.73;;;24.70;90.70;;;;;;4915497;29;20633;-76
2024/03/03 12:39:48;;;;;;;6.53;5.67;;;24.80;90.10;;;;;;4915890;29;20978;-76
2024/03/03 12:42:14;;;;;;;9.33;6.17;;;24.90;88.80;;;;;;4916061;29;20596;-76